createdAt,value
2023-04-16T00:00:56.996Z,23.20
2023-04-16T00:03:25.096Z,26.20
2023-04-16T00:05:55.636Z,28.63
2023-04-16T00:08:24.571Z,27.52
2023-04-16T00:10:52.240Z,24.80
2023-04-16T00:13:20.011Z,26.40
2023-04-16T00:15:49.037Z,29.65
2023-04-16T00:18:16.659Z,23.85
2023-04-16T00:20:44.286Z,23.05
2023-04-16T00:23:11.962Z,22.73
2023-04-16T00:25:39.590Z,27.42
2023-04-16T00:28:07.359Z,23.70
2023-04-16T00:30:35.883Z,27.17
2023-04-16T00:33:05.598Z,30.67
2023-04-16T00:35:46.509Z,29.08
2023-04-16T00:38:14.827Z,25.65
2023-04-16T00:40:42.480Z,31.00
2023-04-16T00:43:10.581Z,26.60
2023-04-16T00:45:38.336Z,29.40
2023-04-16T00:48:07.500Z,27.35
2023-04-16T00:50:38.394Z,30.75
2023-04-16T00:53:06.280Z,30.83
2023-04-16T00:55:33.947Z,30.77
2023-04-16T00:58:01.570Z,27.13
2023-04-16T01:00:29.336Z,28.15
2023-04-16T01:02:57.594Z,27.98
2023-04-16T01:05:26.958Z,31.55
2023-04-16T01:07:54.599Z,29.60
2023-04-16T01:10:26.080Z,27.00
2023-04-16T01:12:53.761Z,29.67
2023-04-16T01:15:21.429Z,31.15
2023-04-16T01:17:49.399Z,31.45
2023-04-16T01:20:25.926Z,27.67
2023-04-16T01:22:57.249Z,31.77
2023-04-16T01:25:27.250Z,32.90
2023-04-16T01:27:57.291Z,29.45
2023-04-16T01:30:25.030Z,32.65
2023-04-16T01:32:52.784Z,33.05
2023-04-16T01:35:20.490Z,31.13
2023-04-16T01:37:48.149Z,31.50
2023-04-16T01:40:17.330Z,33.75
2023-04-16T01:42:45.109Z,30.67
2023-04-16T01:45:15.863Z,30.38
2023-04-16T01:47:43.811Z,25.88
2023-04-16T01:50:12.714Z,32.60
2023-04-16T01:52:41.471Z,29.58
2023-04-16T01:55:10.075Z,29.65
2023-04-16T01:57:38.965Z,30.58
2023-04-16T02:00:08.393Z,32.70
2023-04-16T02:02:36.863Z,30.80
2023-04-16T02:05:05.344Z,34.92
2023-04-16T02:07:33.085Z,32.83
2023-04-16T02:10:00.773Z,31.13
2023-04-16T02:12:28.576Z,29.85
2023-04-16T02:14:58.120Z,33.75
2023-04-16T02:17:31.556Z,33.97
2023-04-16T02:19:59.955Z,36.55
2023-04-16T02:22:27.619Z,35.75
2023-04-16T02:24:55.383Z,34.15
2023-04-16T02:27:23.077Z,34.83
2023-04-16T02:29:50.911Z,31.77
2023-04-16T02:32:20.853Z,32.90
2023-04-16T02:34:48.522Z,34.53
2023-04-16T02:37:16.272Z,33.70
2023-04-16T02:39:43.949Z,34.65
2023-04-16T02:42:11.612Z,32.67
2023-04-16T02:44:39.223Z,32.42
2023-04-16T02:47:06.922Z,35.15
2023-04-16T02:49:36.629Z,32.88
2023-04-16T02:52:04.764Z,30.58
2023-04-16T02:54:32.407Z,33.25
2023-04-16T02:57:00.020Z,34.15
2023-04-16T02:59:27.670Z,34.72
2023-04-16T03:01:57.311Z,28.67
2023-04-16T03:04:25.802Z,34.22
2023-04-16T03:06:54.860Z,31.70
2023-04-16T03:09:22.505Z,29.38
2023-04-16T03:11:50.214Z,31.88
2023-04-16T03:14:17.941Z,34.47
2023-04-16T03:16:45.610Z,33.40
2023-04-16T03:19:13.321Z,30.92
2023-04-16T03:21:40.991Z,30.63
2023-04-16T03:24:10.006Z,32.10
2023-04-16T03:26:37.693Z,25.23
2023-04-16T03:29:05.396Z,33.58
2023-04-16T03:31:33.219Z,33.10
2023-04-16T03:34:01.084Z,31.88
2023-04-16T03:36:28.695Z,31.85
2023-04-16T03:38:56.371Z,30.75
2023-04-16T03:41:25.415Z,35.85
2023-04-16T03:43:53.099Z,32.33
2023-04-16T03:46:20.914Z,37.70
2023-04-16T03:48:48.639Z,30.67
2023-04-16T03:51:16.352Z,27.67
2023-04-16T03:53:44.013Z,29.42
2023-04-16T03:56:11.660Z,33.35
2023-04-16T03:58:40.755Z,31.48
2023-04-16T04:01:08.462Z,32.53
2023-04-16T04:03:36.341Z,30.70
2023-04-16T04:06:07.863Z,27.90
2023-04-16T04:08:35.649Z,33.35
2023-04-16T04:11:03.257Z,27.27
2023-04-16T04:13:31.001Z,28.83
2023-04-16T04:16:00.277Z,31.60
2023-04-16T04:18:28.072Z,32.05
2023-04-16T04:20:55.788Z,27.65
2023-04-16T04:23:23.554Z,35.63
2023-04-16T04:25:51.389Z,32.83
2023-04-16T04:28:19.118Z,35.60
2023-04-16T04:30:46.792Z,31.92
2023-04-16T04:33:15.850Z,37.03
2023-04-16T04:35:43.464Z,30.65
2023-04-16T04:38:11.221Z,33.92
2023-04-16T04:40:39.222Z,30.63
2023-04-16T04:43:06.859Z,36.83
2023-04-16T04:45:34.605Z,28.50
2023-04-16T04:48:02.358Z,29.60
2023-04-16T04:50:31.483Z,28.40
2023-04-16T04:52:59.070Z,36.42
2023-04-16T04:55:26.866Z,29.30
2023-04-16T04:57:54.543Z,31.15
2023-04-16T05:00:22.303Z,29.95
2023-04-16T05:02:51.083Z,31.92
2023-04-16T05:05:18.913Z,32.78
2023-04-16T05:07:47.944Z,30.25
2023-04-16T05:10:15.714Z,27.55
2023-04-16T05:12:43.468Z,29.85
2023-04-16T05:15:11.682Z,30.33
2023-04-16T05:17:39.302Z,27.48
2023-04-16T05:20:11.187Z,30.83
2023-04-16T05:22:38.884Z,27.88
2023-04-16T05:25:08.777Z,28.27
2023-04-16T05:27:36.978Z,28.83
2023-04-16T05:30:04.979Z,31.02
2023-04-16T05:32:32.693Z,29.77
2023-04-16T05:35:00.444Z,32.30
2023-04-16T05:37:28.405Z,35.20
2023-04-16T05:39:56.061Z,24.67
2023-04-16T05:42:27.518Z,31.40
2023-04-16T05:44:55.430Z,29.27
2023-04-16T05:47:25.443Z,23.17
2023-04-16T05:49:53.130Z,30.88
2023-04-16T05:52:20.871Z,31.17
2023-04-16T05:54:48.798Z,32.17
2023-04-16T05:57:16.576Z,29.25
2023-04-16T05:59:45.630Z,27.65
2023-04-16T06:02:13.790Z,28.88
2023-04-16T06:04:50.724Z,27.60
2023-04-16T06:07:18.948Z,27.50
2023-04-16T06:09:46.693Z,26.70
2023-04-16T06:12:14.459Z,28.42
2023-04-16T06:14:42.154Z,25.90
2023-04-16T06:17:11.228Z,27.25
2023-04-16T06:19:38.911Z,25.33
2023-04-16T06:22:08.417Z,23.98
2023-04-16T06:24:36.594Z,30.60
2023-04-16T06:27:04.407Z,27.15
2023-04-16T06:29:40.445Z,25.35
2023-04-16T06:32:09.791Z,24.15
2023-04-16T06:34:39.830Z,24.67
2023-04-16T06:37:10.366Z,23.65
2023-04-16T06:39:38.382Z,24.23
2023-04-16T06:42:08.076Z,24.55
2023-04-16T06:44:36.637Z,25.75
2023-04-16T06:47:04.645Z,25.50
2023-04-16T06:49:32.553Z,26.23
2023-04-16T06:52:03.845Z,25.40
2023-04-16T06:54:33.414Z,23.20
2023-04-16T06:57:01.083Z,31.10
2023-04-16T06:59:28.774Z,28.23
2023-04-16T07:01:56.505Z,25.40
2023-04-16T07:04:24.328Z,28.00
2023-04-16T07:06:52.997Z,23.17
2023-04-16T07:09:23.035Z,24.60
2023-04-16T07:11:51.331Z,29.60
2023-04-16T07:14:19.029Z,23.65
2023-04-16T07:16:46.827Z,29.63
2023-04-16T07:19:14.544Z,30.38
2023-04-16T07:21:43.692Z,26.85
2023-04-16T07:24:11.770Z,20.80
2023-04-16T07:26:41.090Z,21.98
2023-04-16T07:29:11.280Z,23.80
2023-04-16T07:31:39.744Z,23.30
2023-04-16T07:34:07.488Z,24.83
2023-04-16T07:36:35.189Z,25.17
2023-04-16T07:39:02.873Z,27.10
2023-04-16T07:41:30.982Z,32.15
2023-04-16T07:43:59.876Z,26.08
2023-04-16T07:46:33.160Z,26.15
2023-04-16T07:49:07.619Z,26.35
2023-04-16T07:51:37.514Z,23.15
2023-04-16T07:54:05.350Z,26.10
2023-04-16T07:56:33.017Z,21.75
2023-04-16T07:59:14.372Z,22.65
2023-04-16T08:01:49.402Z,21.73
2023-04-16T08:04:22.978Z,24.30
2023-04-16T08:06:51.325Z,29.08
2023-04-16T08:09:20.149Z,24.40
2023-04-16T08:11:49.186Z,26.95
2023-04-16T08:14:18.272Z,25.95
2023-04-16T08:16:45.955Z,21.35
2023-04-16T08:19:13.728Z,27.30
2023-04-16T08:21:41.663Z,23.80
2023-04-16T08:24:09.269Z,28.25
2023-04-16T08:26:36.907Z,25.08
2023-04-16T08:29:04.688Z,28.60
2023-04-16T08:31:34.083Z,21.73
2023-04-16T08:34:01.986Z,27.25
2023-04-16T08:36:29.737Z,26.20
2023-04-16T08:38:57.344Z,24.48
2023-04-16T08:41:27.924Z,23.85
2023-04-16T08:43:57.305Z,23.85
2023-04-16T08:46:26.520Z,23.45
2023-04-16T08:48:56.729Z,24.83
2023-04-16T08:51:24.895Z,21.67
2023-04-16T08:53:54.749Z,24.10
2023-04-16T08:56:24.930Z,23.17
2023-04-16T08:58:56.246Z,26.75
2023-04-16T09:01:26.625Z,28.80
2023-04-16T09:03:56.747Z,21.73
2023-04-16T09:06:24.738Z,24.20
2023-04-16T09:08:55.025Z,22.13
2023-04-16T09:11:22.766Z,23.30
2023-04-16T09:13:50.662Z,23.45
2023-04-16T09:16:19.540Z,22.70
2023-04-16T09:18:47.781Z,24.17
2023-04-16T09:21:17.208Z,23.77
2023-04-16T09:23:44.944Z,24.13
2023-04-16T09:26:12.687Z,23.27
2023-04-16T09:28:41.768Z,28.20
2023-04-16T09:31:14.867Z,24.20
2023-04-16T09:33:43.444Z,25.02
2023-04-16T09:36:11.856Z,29.95
2023-04-16T09:38:51.783Z,25.25
2023-04-16T09:41:25.292Z,23.80
2023-04-16T09:43:57.719Z,23.63
2023-04-16T09:46:30.821Z,23.98
2023-04-16T09:49:01.033Z,26.58
2023-04-16T09:51:37.990Z,25.30
2023-04-16T09:54:07.488Z,22.23
2023-04-16T09:56:40.330Z,24.65
2023-04-16T09:59:17.583Z,27.95
2023-04-16T10:01:46.712Z,28.58
2023-04-16T10:04:14.631Z,28.02
2023-04-16T10:06:44.116Z,24.98
2023-04-16T10:09:13.457Z,25.52
2023-04-16T10:11:41.465Z,29.85
2023-04-16T10:14:09.960Z,28.83
2023-04-16T10:16:41.046Z,23.27
2023-04-16T10:19:09.898Z,28.17
2023-04-16T10:21:37.892Z,29.95
2023-04-16T10:24:06.277Z,25.75
2023-04-16T10:26:37.026Z,25.67
2023-04-16T10:29:07.254Z,30.52
2023-04-16T10:31:36.874Z,24.17
2023-04-16T10:34:04.870Z,26.85
2023-04-16T10:36:36.956Z,28.27
2023-04-16T10:39:05.531Z,27.88
2023-04-16T10:41:35.572Z,29.58
2023-04-16T10:44:09.394Z,29.33
2023-04-16T10:46:39.515Z,33.95
2023-04-16T10:49:15.007Z,28.98
2023-04-16T10:51:43.302Z,27.58
2023-04-16T10:54:22.150Z,27.00
2023-04-16T10:56:51.866Z,25.52
2023-04-16T10:59:20.613Z,27.83
2023-04-16T11:01:49.862Z,28.52
2023-04-16T11:04:31.015Z,25.98
2023-04-16T11:07:06.487Z,25.05
2023-04-16T11:09:53.236Z,26.75
2023-04-16T11:12:24.204Z,36.60
2023-04-16T11:14:54.172Z,27.35
2023-04-16T11:17:23.289Z,27.08
2023-04-16T11:19:53.514Z,26.88
2023-04-16T11:22:21.603Z,29.80
2023-04-16T11:24:55.706Z,31.00
2023-04-16T11:27:26.385Z,28.95
2023-04-16T11:30:01.868Z,26.90
2023-04-16T11:32:32.524Z,28.85
2023-04-16T11:35:03.450Z,28.23
2023-04-16T11:37:34.899Z,28.00
2023-04-16T11:40:04.815Z,28.02
2023-04-16T11:42:37.149Z,29.33
2023-04-16T11:45:06.140Z,30.35
2023-04-16T11:47:42.989Z,27.50
2023-04-16T11:50:21.902Z,26.50
2023-04-16T11:52:50.516Z,26.58
2023-04-16T11:55:18.536Z,25.52
2023-04-16T11:57:47.728Z,31.23
2023-04-16T12:00:16.119Z,32.08
2023-04-16T12:02:46.040Z,34.17
2023-04-16T12:05:31.877Z,27.48
2023-04-16T12:08:01.538Z,29.98
2023-04-16T12:10:30.061Z,26.13
2023-04-16T12:13:13.469Z,31.73
2023-04-16T12:15:48.542Z,29.95
2023-04-16T12:18:16.761Z,22.73
2023-04-16T12:20:45.797Z,26.95
2023-04-16T12:23:24.059Z,27.42
2023-04-16T12:25:52.059Z,29.92
2023-04-16T12:28:30.351Z,28.25
2023-04-16T12:30:58.085Z,25.98
2023-04-16T12:33:28.194Z,30.08
2023-04-16T12:35:56.404Z,24.48
2023-04-16T12:38:25.578Z,29.50
2023-04-16T12:40:56.666Z,29.00
2023-04-16T12:43:24.903Z,31.25
2023-04-16T12:45:53.977Z,22.63
2023-04-16T12:48:21.870Z,31.45
2023-04-16T12:50:49.493Z,27.05
2023-04-16T12:53:17.227Z,30.33
2023-04-16T12:55:45.340Z,27.77
2023-04-16T12:58:13.151Z,26.17
2023-04-16T13:00:41.174Z,29.70
2023-04-16T13:03:14.271Z,26.67
2023-04-16T13:05:42.267Z,29.65
2023-04-16T13:08:09.984Z,28.95
2023-04-16T13:10:38.050Z,25.10
2023-04-16T13:13:06.418Z,26.48
2023-04-16T13:15:34.486Z,28.23
2023-04-16T13:18:02.307Z,27.17
2023-04-16T13:20:31.401Z,27.00
2023-04-16T13:22:59.784Z,24.52
2023-04-16T13:25:27.702Z,22.98
2023-04-16T13:27:55.474Z,21.00
2023-04-16T13:30:25.395Z,19.45
2023-04-16T13:32:53.141Z,24.17
2023-04-16T13:35:20.843Z,25.52
2023-04-16T13:37:49.760Z,23.40
2023-04-16T13:40:17.732Z,23.17
2023-04-16T13:42:45.322Z,23.38
2023-04-16T13:45:12.891Z,19.35
2023-04-16T13:47:42.390Z,17.40
2023-04-16T13:50:10.988Z,17.90
2023-04-16T13:52:40.982Z,16.65
2023-04-16T13:55:13.661Z,16.20
2023-04-16T13:57:41.546Z,18.30
2023-04-16T14:00:12.564Z,16.42
2023-04-16T14:02:41.138Z,17.40
2023-04-16T14:05:09.333Z,17.75
2023-04-16T14:07:40.990Z,15.75
2023-04-16T14:10:11.269Z,14.98
2023-04-16T14:12:39.273Z,16.60
2023-04-16T14:15:09.623Z,17.67
2023-04-16T14:17:37.942Z,15.75
2023-04-16T14:20:06.933Z,15.40
2023-04-16T14:22:34.665Z,18.33
2023-04-16T14:25:03.392Z,15.25
2023-04-16T14:27:32.566Z,14.48
2023-04-16T14:30:00.406Z,16.83
2023-04-16T14:32:28.671Z,18.33
2023-04-16T14:34:56.411Z,13.07
2023-04-16T14:37:24.130Z,14.20
2023-04-16T14:39:51.908Z,19.58
2023-04-16T14:42:19.568Z,17.13
2023-04-16T14:44:48.875Z,15.65
2023-04-16T14:47:16.499Z,16.88
2023-04-16T14:49:45.856Z,15.68
2023-04-16T14:52:16.865Z,15.75
2023-04-16T14:54:44.548Z,16.20
2023-04-16T14:57:12.144Z,14.30
2023-04-16T14:59:39.829Z,13.95
2023-04-16T15:02:10.351Z,17.38
2023-04-16T15:04:38.349Z,15.10
2023-04-16T15:07:06.060Z,15.25
2023-04-16T15:09:34.833Z,16.52
2023-04-16T15:12:02.763Z,17.27
2023-04-16T15:14:30.424Z,16.75
2023-04-16T15:16:58.109Z,15.52
2023-04-16T15:19:27.786Z,14.13
2023-04-16T15:21:55.869Z,17.67
2023-04-16T15:24:23.623Z,12.82
2023-04-16T15:26:51.386Z,14.60
2023-04-16T15:29:18.940Z,16.40
2023-04-16T15:31:46.611Z,14.10
2023-04-16T15:34:14.292Z,12.48
2023-04-16T15:36:43.428Z,15.73
2023-04-16T15:39:11.682Z,16.30
2023-04-16T15:41:53.387Z,15.88
2023-04-16T15:44:27.269Z,13.98
2023-04-16T15:46:55.202Z,17.45
2023-04-16T15:49:23.346Z,14.18
2023-04-16T15:51:52.546Z,17.02
2023-04-16T15:54:20.282Z,11.98
2023-04-16T15:56:48.125Z,11.32
2023-04-16T15:59:15.986Z,13.18
2023-04-16T16:01:43.640Z,12.10
2023-04-16T16:04:11.916Z,12.38
2023-04-16T16:06:39.573Z,10.77
2023-04-16T16:09:08.981Z,10.65
2023-04-16T16:11:40.587Z,7.45
2023-04-16T16:14:08.521Z,9.27
2023-04-16T16:16:36.441Z,9.15
2023-04-16T16:19:05.876Z,8.40
2023-04-16T16:21:34.776Z,6.68
2023-04-16T16:24:02.509Z,6.82
2023-04-16T16:26:31.958Z,8.10
2023-04-16T16:28:59.663Z,7.80
2023-04-16T16:31:27.392Z,9.75
2023-04-16T16:33:55.076Z,14.00
2023-04-16T16:36:22.875Z,9.00
2023-04-16T16:38:50.489Z,8.40
2023-04-16T16:41:18.115Z,12.93
2023-04-16T16:43:47.105Z,11.23
2023-04-16T16:46:14.923Z,8.70
2023-04-16T16:48:42.825Z,9.02
2023-04-16T16:51:11.072Z,6.90
2023-04-16T16:53:38.650Z,8.60
2023-04-16T16:56:06.913Z,8.88
2023-04-16T16:58:34.615Z,9.75
2023-04-16T17:01:03.712Z,9.70
2023-04-16T17:03:32.924Z,11.25
2023-04-16T17:06:01.084Z,9.20
2023-04-16T17:08:29.192Z,9.45
2023-04-16T17:10:56.844Z,7.10
2023-04-16T17:13:25.280Z,9.65
2023-04-16T17:15:53.170Z,9.70
2023-04-16T17:18:23.818Z,7.85
2023-04-16T17:20:51.529Z,8.00
2023-04-16T17:23:19.190Z,8.68
2023-04-16T17:25:47.052Z,10.35
2023-04-16T17:28:14.870Z,9.60
2023-04-16T17:30:42.553Z,10.52
2023-04-16T17:33:10.491Z,10.25
2023-04-16T17:35:40.490Z,8.73
2023-04-16T17:38:08.350Z,9.85
2023-04-16T17:40:36.201Z,8.77
2023-04-16T17:43:03.780Z,8.35
2023-04-16T17:45:31.642Z,8.43
2023-04-16T17:47:59.878Z,11.00
2023-04-16T17:50:27.946Z,10.35
2023-04-16T17:52:58.097Z,11.30
2023-04-16T17:55:27.178Z,8.70
2023-04-16T17:57:56.454Z,11.80
2023-04-16T18:00:24.172Z,14.02
2023-04-16T18:02:52.481Z,11.55
2023-04-16T18:05:21.757Z,9.90
2023-04-16T18:07:50.485Z,12.07
2023-04-16T18:10:22.333Z,10.60
2023-04-16T18:12:50.068Z,11.23
2023-04-16T18:15:17.968Z,12.13
2023-04-16T18:17:46.132Z,10.90
2023-04-16T18:20:16.866Z,9.50
2023-04-16T18:22:44.500Z,12.65
2023-04-16T18:25:12.232Z,11.38
2023-04-16T18:27:41.868Z,14.45
2023-04-16T18:30:20.101Z,16.98
2023-04-16T18:33:16.601Z,12.43
2023-04-16T18:35:41.604Z,11.85
2023-04-16T18:38:09.557Z,12.38
2023-04-16T18:40:38.092Z,13.63
2023-04-16T18:43:07.591Z,12.20
2023-04-16T18:45:36.247Z,11.30
2023-04-16T18:48:04.318Z,12.77
2023-04-16T18:50:32.631Z,13.13
2023-04-16T18:53:00.504Z,13.30
2023-04-16T18:55:28.624Z,12.75
2023-04-16T18:57:57.637Z,11.93
2023-04-16T19:00:26.772Z,14.80
2023-04-16T19:02:55.778Z,11.82
2023-04-16T19:05:23.635Z,14.25
2023-04-16T19:07:51.229Z,11.73
2023-04-16T19:10:19.036Z,11.13
2023-04-16T19:12:49.315Z,12.63
2023-04-16T19:15:17.028Z,13.60
2023-04-16T19:17:46.715Z,12.85
2023-04-16T19:20:15.264Z,13.38
2023-04-16T19:22:43.238Z,11.35
2023-04-16T19:25:11.282Z,13.15
2023-04-16T19:27:38.902Z,12.13
2023-04-16T19:30:10.520Z,13.40
2023-04-16T19:32:38.528Z,13.15
2023-04-16T19:35:08.306Z,13.90
2023-04-16T19:37:36.291Z,13.77
2023-04-16T19:40:05.980Z,11.88
2023-04-16T19:42:34.078Z,12.13
2023-04-16T19:45:03.060Z,13.43
2023-04-16T19:47:30.936Z,11.55
2023-04-16T19:49:58.806Z,15.32
2023-04-16T19:52:30.557Z,14.70
2023-04-16T19:54:58.325Z,13.88
2023-04-16T19:57:26.068Z,16.02
2023-04-16T19:59:55.104Z,14.25
2023-04-16T20:02:23.239Z,17.27
2023-04-16T20:04:53.077Z,16.75
2023-04-16T20:07:20.819Z,11.70
2023-04-16T20:09:50.879Z,14.50
2023-04-16T20:12:18.548Z,12.38
2023-04-16T20:14:50.797Z,13.55
2023-04-16T20:17:20.974Z,16.13
2023-04-16T20:19:49.608Z,13.48
2023-04-16T20:22:18.610Z,10.10
2023-04-16T20:24:50.644Z,14.90
2023-04-16T20:27:20.871Z,12.23
2023-04-16T20:29:49.164Z,18.40
2023-04-16T20:32:17.934Z,13.00
2023-04-16T20:34:46.026Z,12.25
2023-04-16T20:37:13.929Z,15.82
2023-04-16T20:39:44.524Z,12.77
2023-04-16T20:42:12.796Z,14.00
2023-04-16T20:44:41.769Z,13.52
2023-04-16T20:47:10.072Z,12.85
2023-04-16T20:49:38.395Z,16.77
2023-04-16T20:52:07.312Z,12.45
2023-04-16T20:54:35.151Z,12.82
2023-04-16T20:57:04.731Z,15.90
2023-04-16T20:59:32.704Z,15.95
2023-04-16T21:02:01.794Z,13.55
2023-04-16T21:04:29.775Z,11.93
2023-04-16T21:06:57.533Z,15.63
2023-04-16T21:09:25.294Z,14.23
2023-04-16T21:11:52.979Z,13.23
2023-04-16T21:14:20.790Z,14.38
2023-04-16T21:16:48.444Z,14.55
2023-04-16T21:19:17.461Z,14.20
2023-04-16T21:21:45.383Z,13.40
2023-04-16T21:24:13.027Z,15.88
2023-04-16T21:26:40.817Z,16.00
2023-04-16T21:29:08.511Z,13.50
2023-04-16T21:31:36.565Z,15.43
2023-04-16T21:34:04.251Z,15.13
2023-04-16T21:36:34.003Z,17.83
2023-04-16T21:39:02.099Z,15.15
2023-04-16T21:41:29.723Z,14.50
2023-04-16T21:43:57.478Z,15.27
2023-04-16T21:46:26.296Z,14.93
2023-04-16T21:48:54.014Z,18.35
2023-04-16T21:51:28.881Z,18.27
2023-04-16T21:53:58.352Z,14.68
2023-04-16T21:56:26.371Z,14.90
2023-04-16T21:58:54.073Z,15.90
2023-04-16T22:01:22.045Z,14.45
2023-04-16T22:03:51.790Z,15.00
2023-04-16T22:06:20.332Z,17.42
2023-04-16T22:08:49.650Z,16.90
2023-04-16T22:11:18.621Z,15.23
2023-04-16T22:13:47.816Z,15.43
2023-04-16T22:16:15.708Z,14.98
2023-04-16T22:18:43.510Z,19.25
2023-04-16T22:21:11.388Z,14.32
2023-04-16T22:23:39.015Z,13.88
2023-04-16T22:26:06.921Z,17.65
2023-04-16T22:28:35.985Z,14.43
2023-04-16T22:31:03.782Z,18.75
2023-04-16T22:33:31.621Z,15.10
2023-04-16T22:36:00.405Z,15.52
2023-04-16T22:38:28.086Z,15.55
2023-04-16T22:40:55.868Z,14.40
2023-04-16T22:43:23.862Z,14.65
2023-04-16T22:46:04.802Z,15.30
2023-04-16T22:48:33.836Z,14.65
2023-04-16T22:51:01.704Z,15.20
2023-04-16T22:53:29.608Z,17.30
2023-04-16T22:55:57.337Z,14.27
2023-04-16T22:58:25.436Z,13.63
2023-04-16T23:00:56.737Z,17.65
2023-04-16T23:03:24.801Z,13.75
2023-04-16T23:05:52.691Z,14.60
2023-04-16T23:08:21.529Z,15.95
2023-04-16T23:10:49.693Z,13.80
2023-04-16T23:13:17.370Z,19.50
2023-04-16T23:15:47.152Z,18.95
2023-04-16T23:18:16.259Z,14.90
2023-04-16T23:20:43.856Z,18.92
2023-04-16T23:23:11.469Z,17.23
2023-04-16T23:25:41.728Z,18.67
2023-04-16T23:28:09.357Z,14.68
2023-04-16T23:30:37.176Z,15.88
2023-04-16T23:33:05.042Z,17.20
2023-04-16T23:35:34.054Z,14.90
2023-04-16T23:38:01.706Z,18.27
2023-04-16T23:40:29.371Z,17.38
2023-04-16T23:42:57.103Z,19.88
2023-04-16T23:45:24.897Z,14.43
2023-04-16T23:47:52.574Z,17.58
2023-04-16T23:50:21.730Z,14.73
2023-04-16T23:52:50.935Z,13.48
2023-04-16T23:55:18.534Z,18.10
2023-04-16T23:57:46.245Z,16.92
